createdAt,value
2023-04-07T00:01:40.183Z,6.00
2023-04-07T00:04:07.140Z,6.10
2023-04-07T00:06:34.068Z,5.90
2023-04-07T00:09:00.955Z,6.00
2023-04-07T00:11:27.869Z,6.00
2023-04-07T00:13:54.941Z,6.00
2023-04-07T00:16:22.089Z,6.20
2023-04-07T00:18:48.906Z,6.30
2023-04-07T00:21:15.744Z,6.30
2023-04-07T00:23:42.920Z,6.30
2023-04-07T00:26:09.755Z,6.40
2023-04-07T00:28:36.575Z,6.60
2023-04-07T00:31:03.470Z,6.70
2023-04-07T00:33:30.657Z,6.70
2023-04-07T00:35:58.648Z,6.70
2023-04-07T00:38:25.645Z,6.80
2023-04-07T00:41:01.316Z,6.90
2023-04-07T00:43:28.209Z,6.80
2023-04-07T00:45:55.217Z,6.90
2023-04-07T00:48:22.310Z,6.90
2023-04-07T00:50:49.291Z,6.90
2023-04-07T00:53:16.878Z,7.00
2023-04-07T00:55:43.802Z,7.00
2023-04-07T00:58:11.059Z,7.00
2023-04-07T01:00:45.491Z,7.10
2023-04-07T01:03:31.688Z,7.30
2023-04-07T01:06:02.120Z,7.10
2023-04-07T01:08:42.669Z,7.40
2023-04-07T01:11:21.912Z,7.20
2023-04-07T01:13:50.985Z,7.10
2023-04-07T01:16:25.191Z,7.10
2023-04-07T01:18:56.908Z,7.30
2023-04-07T01:21:28.688Z,7.30
2023-04-07T01:24:13.821Z,7.30
2023-04-07T01:26:42.343Z,7.40
2023-04-07T01:29:31.278Z,7.50
2023-04-07T01:32:00.930Z,7.40
2023-04-07T01:34:30.364Z,7.30
2023-04-07T01:36:59.255Z,7.40
2023-04-07T01:39:27.981Z,7.50
2023-04-07T01:41:55.626Z,7.60
2023-04-07T01:44:23.132Z,7.60
2023-04-07T01:46:53.292Z,7.60
2023-04-07T01:49:20.760Z,7.60
2023-04-07T01:51:50.416Z,7.50
2023-04-07T01:54:18.161Z,7.60
2023-04-07T01:56:45.356Z,7.60
2023-04-07T01:59:12.607Z,7.60
2023-04-07T02:01:39.685Z,7.60
2023-04-07T02:04:16.093Z,7.70
2023-04-07T02:06:49.194Z,7.50
2023-04-07T02:09:16.874Z,7.60
2023-04-07T02:11:45.053Z,7.70
2023-04-07T02:14:13.485Z,7.60
2023-04-07T02:16:42.335Z,7.60
2023-04-07T02:19:09.474Z,7.60
2023-04-07T02:21:37.242Z,7.60
2023-04-07T02:24:07.737Z,7.60
2023-04-07T02:26:37.961Z,7.60
2023-04-07T02:29:05.143Z,7.50
2023-04-07T02:31:32.222Z,7.60
2023-04-07T02:33:59.013Z,7.60
2023-04-07T02:36:27.254Z,7.70
2023-04-07T02:38:54.681Z,7.60
2023-04-07T02:41:21.531Z,7.60
2023-04-07T02:43:48.585Z,7.60
2023-04-07T02:46:16.658Z,7.60
2023-04-07T02:48:43.665Z,7.60
2023-04-07T02:51:10.371Z,7.60
2023-04-07T02:53:37.155Z,7.70
2023-04-07T02:56:04.201Z,7.90
2023-04-07T02:58:31.000Z,8.20
2023-04-07T03:00:57.814Z,8.40
2023-04-07T03:03:24.745Z,8.60
2023-04-07T03:05:51.690Z,8.70
2023-04-07T03:08:18.472Z,8.90
2023-04-07T03:10:45.434Z,9.00
2023-04-07T03:13:16.292Z,9.10
2023-04-07T03:15:43.718Z,9.10
2023-04-07T03:18:11.530Z,9.20
2023-04-07T03:20:38.355Z,9.30
2023-04-07T03:23:05.121Z,9.30
2023-04-07T03:25:32.639Z,9.30
2023-04-07T03:27:59.599Z,9.30
2023-04-07T03:30:26.532Z,9.60
2023-04-07T03:32:53.364Z,9.70
2023-04-07T03:35:20.233Z,9.80
2023-04-07T03:37:46.981Z,9.90
2023-04-07T03:40:13.992Z,10.00
2023-04-07T03:42:40.935Z,9.90
2023-04-07T03:45:08.403Z,10.00
2023-04-07T03:47:35.508Z,10.30
2023-04-07T03:50:02.332Z,10.00
2023-04-07T03:52:29.096Z,10.00
2023-04-07T03:54:56.098Z,10.20
2023-04-07T03:57:22.937Z,10.40
2023-04-07T03:59:51.265Z,10.40
2023-04-07T04:02:19.143Z,10.40
2023-04-07T04:04:46.122Z,10.40
2023-04-07T04:07:12.988Z,10.40
2023-04-07T04:09:39.964Z,10.40
2023-04-07T04:12:06.738Z,10.40
2023-04-07T04:14:33.548Z,10.70
2023-04-07T04:17:00.585Z,10.50
2023-04-07T04:19:27.481Z,10.50
2023-04-07T04:21:54.409Z,10.50
2023-04-07T04:24:21.108Z,10.60
2023-04-07T04:26:47.846Z,10.80
2023-04-07T04:29:14.670Z,10.80
2023-04-07T04:31:41.536Z,10.80
2023-04-07T04:34:08.358Z,10.90
2023-04-07T04:36:36.621Z,10.90
2023-04-07T04:39:05.039Z,11.00
2023-04-07T04:41:31.758Z,11.10
2023-04-07T04:43:58.773Z,11.10
2023-04-07T04:46:25.763Z,11.40
2023-04-07T04:48:54.087Z,11.30
2023-04-07T04:51:20.786Z,11.40
2023-04-07T04:53:47.768Z,11.30
2023-04-07T04:56:14.603Z,11.30
2023-04-07T04:58:46.065Z,11.40
2023-04-07T05:01:13.602Z,11.30
2023-04-07T05:03:41.072Z,11.20
2023-04-07T05:06:08.112Z,11.20
2023-04-07T05:08:34.881Z,11.40
2023-04-07T05:11:01.609Z,11.40
2023-04-07T05:13:30.709Z,11.50
2023-04-07T05:15:57.647Z,11.40
2023-04-07T05:18:24.668Z,11.60
2023-04-07T05:20:51.494Z,11.70
2023-04-07T05:23:18.332Z,11.80
2023-04-07T05:25:45.425Z,11.80
2023-04-07T05:28:12.273Z,11.90
2023-04-07T05:30:39.051Z,12.10
2023-04-07T05:33:05.987Z,12.20
2023-04-07T05:35:32.809Z,12.00
2023-04-07T05:37:59.606Z,12.00
2023-04-07T05:40:26.555Z,12.10
2023-04-07T05:42:53.326Z,12.40
2023-04-07T05:45:20.212Z,12.80
2023-04-07T05:47:50.056Z,12.60
2023-04-07T05:50:17.952Z,12.60
2023-04-07T05:52:44.673Z,12.50
2023-04-07T05:55:11.633Z,12.60
2023-04-07T05:57:38.495Z,12.60
2023-04-07T06:00:05.993Z,12.60
2023-04-07T06:02:32.909Z,12.60
2023-04-07T06:04:59.938Z,12.60
2023-04-07T06:07:26.815Z,12.60
2023-04-07T06:09:54.167Z,12.90
2023-04-07T06:12:21.002Z,12.50
2023-04-07T06:14:55.339Z,12.70
2023-04-07T06:17:23.242Z,12.60
2023-04-07T06:19:50.080Z,12.80
2023-04-07T06:22:17.045Z,12.60
2023-04-07T06:24:44.002Z,12.80
2023-04-07T06:27:10.844Z,13.00
2023-04-07T06:29:37.775Z,13.10
2023-04-07T06:32:04.717Z,13.30
2023-04-07T06:34:31.639Z,13.50
2023-04-07T06:36:59.445Z,14.00
2023-04-07T06:39:27.710Z,14.70
2023-04-07T06:41:54.482Z,15.70
2023-04-07T06:44:21.231Z,15.90
2023-04-07T06:46:50.425Z,14.70
2023-04-07T06:49:17.341Z,13.10
2023-04-07T06:51:44.224Z,12.60
2023-04-07T06:54:14.867Z,12.20
2023-04-07T06:56:42.980Z,11.60
2023-04-07T06:59:10.376Z,10.00
2023-04-07T07:01:38.006Z,8.80
2023-04-07T07:04:06.475Z,7.60
2023-04-07T07:06:33.608Z,6.70
2023-04-07T07:09:00.846Z,6.30
2023-04-07T07:11:27.683Z,5.80
2023-04-07T07:13:54.682Z,5.90
2023-04-07T07:16:23.926Z,5.70
2023-04-07T07:18:51.428Z,5.60
2023-04-07T07:21:18.905Z,5.50
2023-04-07T07:23:46.030Z,5.70
2023-04-07T07:26:13.055Z,5.70
2023-04-07T07:28:39.830Z,6.00
2023-04-07T07:31:12.913Z,6.20
2023-04-07T07:33:41.410Z,6.70
2023-04-07T07:36:08.778Z,7.50
2023-04-07T07:38:37.456Z,7.60
2023-04-07T07:41:06.332Z,6.20
2023-04-07T07:43:33.166Z,6.00
2023-04-07T07:46:00.123Z,5.60
2023-04-07T07:48:27.187Z,4.90
2023-04-07T07:50:53.985Z,2.30
2023-04-07T07:53:20.892Z,1.20
2023-04-07T07:55:47.732Z,1.00
2023-04-07T07:58:14.535Z,1.00
2023-04-07T08:00:41.842Z,1.00
2023-04-07T08:03:08.792Z,1.00
2023-04-07T08:05:35.876Z,1.00
2023-04-07T08:08:03.056Z,1.00
2023-04-07T08:10:29.981Z,1.00
2023-04-07T08:12:56.849Z,1.00
2023-04-07T08:15:23.779Z,1.00
2023-04-07T08:17:50.773Z,1.00
2023-04-07T08:20:17.780Z,1.00
2023-04-07T08:22:44.522Z,1.00
2023-04-07T08:25:11.456Z,1.00
2023-04-07T08:27:38.398Z,1.00
2023-04-07T08:30:09.652Z,1.00
2023-04-07T08:32:43.081Z,1.00
2023-04-07T08:35:10.583Z,1.00
2023-04-07T08:37:38.820Z,1.00
2023-04-07T08:40:06.188Z,1.00
2023-04-07T08:42:35.118Z,1.00
2023-04-07T08:45:04.779Z,1.00
2023-04-07T08:47:34.147Z,1.00
2023-04-07T08:50:05.139Z,1.00
2023-04-07T08:52:44.484Z,1.00
2023-04-07T08:55:12.012Z,1.00
2023-04-07T08:57:39.867Z,1.00
2023-04-07T09:00:07.440Z,1.00
2023-04-07T09:02:36.832Z,1.00
2023-04-07T09:05:05.346Z,1.00
2023-04-07T09:07:33.726Z,1.00
2023-04-07T09:10:01.686Z,1.00
2023-04-07T09:12:29.483Z,1.00
2023-04-07T09:14:56.564Z,1.00
2023-04-07T09:17:24.908Z,1.00
2023-04-07T09:19:53.604Z,1.00
2023-04-07T09:22:42.340Z,1.00
2023-04-07T09:25:19.952Z,1.00
2023-04-07T09:28:00.045Z,1.00
2023-04-07T09:30:27.994Z,1.00
2023-04-07T09:32:54.984Z,1.00
2023-04-07T09:35:23.363Z,1.00
2023-04-07T09:38:06.698Z,1.00
2023-04-07T09:40:34.367Z,1.00
2023-04-07T09:43:02.899Z,1.00
2023-04-07T09:45:35.455Z,1.00
2023-04-07T09:48:20.190Z,1.00
2023-04-07T09:50:52.077Z,1.00
2023-04-07T09:53:23.276Z,1.00
2023-04-07T09:55:50.640Z,1.00
2023-04-07T09:58:18.650Z,1.00
2023-04-07T10:00:45.879Z,1.00
2023-04-07T10:03:13.485Z,1.00
2023-04-07T10:05:41.307Z,1.00
2023-04-07T10:08:08.277Z,1.00
2023-04-07T10:10:36.491Z,1.00
2023-04-07T10:13:07.502Z,1.00
2023-04-07T10:15:36.027Z,1.00
2023-04-07T10:18:06.465Z,1.00
2023-04-07T10:20:33.641Z,1.00
2023-04-07T10:23:09.944Z,1.00
2023-04-07T10:25:40.125Z,1.00
2023-04-07T10:28:09.589Z,1.00
2023-04-07T10:30:36.861Z,1.00
2023-04-07T10:33:03.723Z,1.00
2023-04-07T10:36:06.593Z,1.00
2023-04-07T10:38:33.691Z,1.00
2023-04-07T10:41:00.458Z,1.00
2023-04-07T10:43:44.924Z,1.00
2023-04-07T10:46:11.650Z,1.00
2023-04-07T10:48:38.665Z,1.00
2023-04-07T10:51:05.501Z,1.00
2023-04-07T10:53:32.437Z,1.00
2023-04-07T10:55:59.482Z,1.00
2023-04-07T10:58:30.791Z,1.00
2023-04-07T11:01:03.523Z,1.00
2023-04-07T11:03:55.400Z,1.00
2023-04-07T11:06:23.150Z,1.00
2023-04-07T11:08:51.059Z,1.00
2023-04-07T11:11:38.388Z,1.00
2023-04-07T11:14:06.175Z,1.00
2023-04-07T11:16:41.768Z,1.00
2023-04-07T11:19:08.823Z,1.00
2023-04-07T11:21:36.957Z,1.00
2023-04-07T11:24:03.880Z,1.00
2023-04-07T11:26:36.603Z,1.00
2023-04-07T11:29:03.472Z,1.00
2023-04-07T11:31:31.888Z,1.00
2023-04-07T11:34:05.017Z,1.00
2023-04-07T11:36:41.645Z,1.00
2023-04-07T11:39:21.724Z,1.00
2023-04-07T11:41:50.040Z,1.00
2023-04-07T11:44:16.895Z,1.00
2023-04-07T11:47:02.180Z,1.00
2023-04-07T11:49:29.492Z,1.00
2023-04-07T11:52:02.621Z,1.00
2023-04-07T11:54:52.026Z,1.00
2023-04-07T11:57:29.222Z,1.00
2023-04-07T12:00:25.955Z,1.00
2023-04-07T12:02:53.475Z,1.00
2023-04-07T12:05:20.981Z,1.40
2023-04-07T12:07:55.444Z,1.00
2023-04-07T12:10:25.576Z,1.00
2023-04-07T12:12:52.317Z,1.00
2023-04-07T12:15:20.511Z,1.00
2023-04-07T12:17:48.697Z,1.00
2023-04-07T12:20:16.556Z,1.00
2023-04-07T12:22:43.556Z,1.00
2023-04-07T12:25:10.477Z,2.40
2023-04-07T12:27:43.380Z,1.00
2023-04-07T12:30:11.482Z,1.00
2023-04-07T12:32:38.707Z,1.00
2023-04-07T12:35:06.438Z,1.00
2023-04-07T12:37:33.262Z,1.00
2023-04-07T12:40:00.498Z,1.00
2023-04-07T12:42:27.589Z,1.00
2023-04-07T12:44:54.403Z,1.00
2023-04-07T12:47:21.244Z,1.00
2023-04-07T12:49:49.907Z,1.00
2023-04-07T12:52:17.166Z,1.00
2023-04-07T12:54:45.483Z,1.00
2023-04-07T12:57:12.720Z,1.00
2023-04-07T12:59:39.804Z,1.00
2023-04-07T13:02:06.865Z,1.00
2023-04-07T13:04:35.247Z,1.00
2023-04-07T13:07:03.272Z,1.00
2023-04-07T13:09:30.227Z,1.00
2023-04-07T13:11:57.814Z,1.00
2023-04-07T13:14:25.034Z,1.00
2023-04-07T13:16:52.061Z,1.00
2023-04-07T13:19:19.180Z,1.00
2023-04-07T13:21:47.645Z,1.00
2023-04-07T13:24:15.476Z,1.00
2023-04-07T13:26:42.360Z,1.00
2023-04-07T13:29:09.167Z,1.00
2023-04-07T13:31:35.907Z,2.10
2023-04-07T13:34:02.611Z,1.00
2023-04-07T13:36:29.978Z,1.00
2023-04-07T13:38:57.428Z,1.00
2023-04-07T13:41:24.380Z,1.00
2023-04-07T13:43:51.449Z,1.00
2023-04-07T13:46:27.320Z,1.00
2023-04-07T13:48:55.467Z,1.00
2023-04-07T13:51:22.827Z,2.00
2023-04-07T13:53:49.902Z,3.10
2023-04-07T13:56:16.964Z,4.20
2023-04-07T13:58:43.817Z,4.90
2023-04-07T14:01:11.287Z,5.20
2023-04-07T14:03:38.704Z,5.50
2023-04-07T14:06:05.829Z,6.10
2023-04-07T14:08:32.579Z,6.50
2023-04-07T14:10:59.341Z,6.90
2023-04-07T14:13:26.332Z,7.40
2023-04-07T14:15:53.906Z,7.60
2023-04-07T14:18:21.078Z,8.30
2023-04-07T14:20:47.936Z,9.20
2023-04-07T14:23:20.651Z,9.30
2023-04-07T14:25:53.340Z,10.60
2023-04-07T14:28:21.149Z,10.30
2023-04-07T14:30:48.277Z,10.00
2023-04-07T14:33:17.239Z,10.10
2023-04-07T14:35:44.344Z,10.50
2023-04-07T14:38:11.182Z,10.80
2023-04-07T14:40:38.008Z,10.60
2023-04-07T14:43:07.715Z,11.10
2023-04-07T14:45:35.739Z,11.20
2023-04-07T14:48:03.087Z,11.00
2023-04-07T14:50:33.622Z,11.00
2023-04-07T14:53:00.838Z,11.10
2023-04-07T14:55:27.584Z,11.30
2023-04-07T14:57:54.315Z,11.50
2023-04-07T15:00:21.222Z,11.40
2023-04-07T15:02:48.195Z,11.40
2023-04-07T15:05:15.955Z,11.60
2023-04-07T15:07:42.845Z,11.70
2023-04-07T15:10:09.990Z,11.70
2023-04-07T15:12:36.773Z,11.60
2023-04-07T15:15:03.921Z,11.60
2023-04-07T15:17:42.908Z,11.80
2023-04-07T15:20:12.690Z,11.90
2023-04-07T15:22:39.552Z,12.20
2023-04-07T15:25:06.665Z,12.00
2023-04-07T15:27:33.494Z,12.20
2023-04-07T15:30:00.670Z,11.90
2023-04-07T15:32:27.608Z,11.90
2023-04-07T15:34:54.382Z,12.00
2023-04-07T15:37:21.299Z,12.00
2023-04-07T15:39:48.990Z,13.10
2023-04-07T15:42:15.864Z,12.40
2023-04-07T15:44:42.622Z,12.50
2023-04-07T15:47:09.655Z,12.20
2023-04-07T15:49:39.257Z,12.30
2023-04-07T15:52:06.852Z,12.20
2023-04-07T15:54:33.710Z,12.20
2023-04-07T15:57:01.049Z,12.20
2023-04-07T15:59:30.738Z,12.30
2023-04-07T16:01:58.053Z,12.20
2023-04-07T16:04:25.030Z,12.30
2023-04-07T16:06:51.954Z,13.40
2023-04-07T16:09:18.843Z,12.20
2023-04-07T16:11:45.877Z,12.40
2023-04-07T16:14:12.683Z,12.30
2023-04-07T16:16:41.394Z,12.40
2023-04-07T16:19:08.290Z,12.50
2023-04-07T16:21:35.207Z,12.50
2023-04-07T16:24:02.021Z,12.70
2023-04-07T16:26:28.769Z,12.60
2023-04-07T16:28:55.654Z,12.70
2023-04-07T16:31:22.497Z,12.80
2023-04-07T16:33:51.499Z,12.60
2023-04-07T16:36:18.473Z,12.50
2023-04-07T16:38:45.420Z,12.50
2023-04-07T16:41:12.284Z,12.40
2023-04-07T16:43:38.996Z,12.40
2023-04-07T16:46:06.311Z,12.60
2023-04-07T16:48:33.361Z,12.80
2023-04-07T16:51:00.421Z,12.90
2023-04-07T16:53:27.324Z,13.00
2023-04-07T16:55:54.120Z,13.20
2023-04-07T16:58:21.017Z,13.30
2023-04-07T17:00:47.714Z,13.50
2023-04-07T17:03:15.868Z,13.80
2023-04-07T17:05:44.606Z,14.20
2023-04-07T17:08:11.748Z,13.80
2023-04-07T17:10:38.610Z,13.90
2023-04-07T17:13:05.488Z,13.70
2023-04-07T17:15:37.066Z,13.70
2023-04-07T17:18:04.213Z,14.70
2023-04-07T17:20:31.150Z,13.60
2023-04-07T17:22:57.907Z,14.70
2023-04-07T17:25:24.883Z,13.50
2023-04-07T17:27:54.887Z,13.50
2023-04-07T17:30:21.939Z,13.40
2023-04-07T17:32:50.817Z,13.90
2023-04-07T17:35:18.044Z,13.50
2023-04-07T17:37:44.844Z,13.60
2023-04-07T17:40:12.366Z,13.80
2023-04-07T17:42:39.257Z,13.90
2023-04-07T17:45:08.278Z,13.80
2023-04-07T17:47:35.825Z,13.80
2023-04-07T17:50:03.132Z,14.00
2023-04-07T17:52:30.462Z,14.00
2023-04-07T17:54:57.346Z,14.10
2023-04-07T17:57:24.291Z,14.20
2023-04-07T17:59:51.392Z,14.30
2023-04-07T18:02:18.384Z,14.50
2023-04-07T18:04:45.621Z,14.50
2023-04-07T18:07:13.428Z,14.60
2023-04-07T18:09:42.802Z,14.70
2023-04-07T18:12:09.606Z,14.80
2023-04-07T18:14:36.638Z,14.90
2023-04-07T18:17:03.638Z,15.00
2023-04-07T18:19:30.539Z,15.20
2023-04-07T18:21:57.358Z,15.20
2023-04-07T18:24:24.217Z,15.60
2023-04-07T18:26:51.214Z,15.80
2023-04-07T18:29:18.052Z,16.20
2023-04-07T18:31:45.056Z,16.40
2023-04-07T18:34:12.544Z,16.50
2023-04-07T18:36:42.999Z,16.50
2023-04-07T18:39:10.796Z,16.40
2023-04-07T18:41:37.559Z,16.90
2023-04-07T18:44:04.247Z,17.30
2023-04-07T18:46:31.125Z,17.60
2023-04-07T18:48:58.307Z,17.90
2023-04-07T18:51:25.897Z,18.70
2023-04-07T18:53:52.645Z,19.20
2023-04-07T18:56:21.586Z,19.20
2023-04-07T18:58:48.932Z,19.20
2023-04-07T19:01:15.935Z,19.20
2023-04-07T19:03:43.035Z,19.30
2023-04-07T19:06:13.043Z,19.20
2023-04-07T19:08:39.735Z,19.10
2023-04-07T19:11:06.619Z,19.20
2023-04-07T19:13:33.398Z,19.20
2023-04-07T19:16:00.847Z,19.10
2023-04-07T19:18:31.840Z,19.10
2023-04-07T19:20:58.776Z,19.10
2023-04-07T19:23:25.534Z,19.20
2023-04-07T19:25:52.319Z,19.30
2023-04-07T19:28:19.347Z,19.20
2023-04-07T19:30:46.176Z,19.30
2023-04-07T19:33:12.993Z,19.20
2023-04-07T19:35:39.851Z,19.20
2023-04-07T19:38:07.208Z,19.10
2023-04-07T19:40:34.041Z,19.30
2023-04-07T19:43:00.843Z,19.20
2023-04-07T19:45:27.863Z,19.10
2023-04-07T19:47:54.850Z,19.20
2023-04-07T19:50:21.804Z,19.20
2023-04-07T19:52:50.403Z,19.30
2023-04-07T19:55:17.249Z,19.40
2023-04-07T19:57:44.037Z,19.30
2023-04-07T20:00:11.684Z,19.30
2023-04-07T20:02:38.747Z,19.30
2023-04-07T20:05:05.997Z,19.30
2023-04-07T20:07:33.410Z,19.20
2023-04-07T20:10:00.582Z,19.20
2023-04-07T20:12:27.360Z,19.10
2023-04-07T20:14:54.096Z,20.00
2023-04-07T20:17:21.060Z,20.50
2023-04-07T20:19:47.983Z,20.80
2023-04-07T20:22:14.859Z,21.20
2023-04-07T20:24:41.648Z,21.00
2023-04-07T20:27:08.391Z,21.30
2023-04-07T20:29:35.773Z,21.30
2023-04-07T20:32:03.253Z,21.40
2023-04-07T20:34:30.037Z,21.30
2023-04-07T20:36:56.819Z,21.40
2023-04-07T20:39:23.612Z,21.30
2023-04-07T20:41:50.745Z,21.40
2023-04-07T20:44:18.296Z,21.50
2023-04-07T20:46:46.799Z,21.50
2023-04-07T20:49:13.664Z,21.80
2023-04-07T20:51:40.395Z,21.90
2023-04-07T20:54:07.807Z,22.00
2023-04-07T20:56:34.841Z,22.20
2023-04-07T20:59:01.813Z,22.20
2023-04-07T21:01:28.720Z,22.20
2023-04-07T21:03:55.702Z,22.50
2023-04-07T21:06:22.507Z,22.70
2023-04-07T21:08:49.540Z,22.80
2023-04-07T21:11:16.515Z,22.90
2023-04-07T21:13:43.388Z,23.00
2023-04-07T21:16:10.818Z,22.80
2023-04-07T21:18:37.927Z,22.90
2023-04-07T21:21:04.854Z,22.80
2023-04-07T21:23:31.985Z,22.80
2023-04-07T21:26:02.844Z,23.00
2023-04-07T21:28:29.800Z,23.30
2023-04-07T21:30:56.807Z,23.40
2023-04-07T21:33:24.091Z,23.70
2023-04-07T21:35:51.724Z,23.90
2023-04-07T21:38:18.654Z,24.20
2023-04-07T21:40:45.435Z,24.40
2023-04-07T21:43:12.528Z,24.80
2023-04-07T21:45:39.387Z,25.20
2023-04-07T21:48:06.980Z,25.00
2023-04-07T21:50:34.312Z,25.50
2023-04-07T21:53:01.084Z,25.70
2023-04-07T21:55:28.190Z,25.40
2023-04-07T21:57:55.116Z,25.20
2023-04-07T22:00:22.092Z,24.90
2023-04-07T22:02:49.663Z,25.10
2023-04-07T22:05:16.848Z,24.90
2023-04-07T22:07:45.349Z,25.00
2023-04-07T22:10:12.354Z,25.10
2023-04-07T22:12:39.173Z,25.20
2023-04-07T22:15:06.585Z,25.40
2023-04-07T22:17:33.454Z,25.50
2023-04-07T22:20:00.164Z,25.80
2023-04-07T22:22:26.984Z,25.80
2023-04-07T22:24:53.821Z,25.70
2023-04-07T22:27:20.887Z,25.80
2023-04-07T22:29:47.624Z,25.80
2023-04-07T22:32:14.399Z,27.20
2023-04-07T22:34:41.171Z,26.40
2023-04-07T22:37:08.015Z,26.40
2023-04-07T22:39:34.810Z,26.50
2023-04-07T22:42:02.700Z,26.60
2023-04-07T22:44:29.603Z,26.40
2023-04-07T22:46:57.183Z,26.40
2023-04-07T22:49:23.967Z,26.40
2023-04-07T22:51:50.907Z,26.30
2023-04-07T22:54:18.250Z,26.10
2023-04-07T22:56:45.266Z,26.10
2023-04-07T22:59:12.063Z,26.30
2023-04-07T23:01:38.789Z,26.40
2023-04-07T23:04:05.882Z,26.60
2023-04-07T23:06:33.417Z,26.50
2023-04-07T23:09:00.478Z,26.60
2023-04-07T23:11:27.339Z,26.40
2023-04-07T23:13:54.169Z,26.40
2023-04-07T23:16:21.081Z,26.20
2023-04-07T23:18:48.163Z,26.10
2023-04-07T23:21:15.353Z,26.20
2023-04-07T23:23:42.418Z,26.50
2023-04-07T23:26:09.131Z,26.40
2023-04-07T23:28:36.086Z,26.40
2023-04-07T23:31:02.905Z,26.40
2023-04-07T23:33:32.803Z,26.50
2023-04-07T23:35:59.929Z,26.40
2023-04-07T23:38:26.741Z,26.80
2023-04-07T23:40:53.586Z,26.90
2023-04-07T23:43:20.584Z,27.10
2023-04-07T23:45:47.677Z,27.50
2023-04-07T23:48:15.539Z,27.60
2023-04-07T23:50:42.445Z,27.70
2023-04-07T23:53:09.330Z,27.80
2023-04-07T23:55:36.207Z,27.90
2023-04-07T23:58:03.024Z,29.10
